createdAt,value
2019-01-30T00:04:09.103Z,-2.70
2019-01-30T00:06:57.156Z,-2.70
2019-01-30T00:09:45.378Z,-2.70
2019-01-30T00:12:33.371Z,-2.60
2019-01-30T00:15:21.446Z,-2.60
2019-01-30T00:18:09.515Z,-2.60
2019-01-30T00:20:57.520Z,-2.60
2019-01-30T00:23:45.507Z,-2.80
2019-01-30T00:26:33.519Z,-2.60
2019-01-30T00:29:21.528Z,-2.50
2019-01-30T00:32:09.511Z,-2.60
2019-01-30T00:34:57.522Z,-2.80
2019-01-30T00:37:45.510Z,-2.60
2019-01-30T00:40:33.522Z,-2.60
2019-01-30T00:43:21.506Z,-2.70
2019-01-30T00:46:09.524Z,-2.90
2019-01-30T00:48:57.578Z,-2.80
2019-01-30T00:51:45.582Z,-2.80
2019-01-30T00:54:33.575Z,-2.90
2019-01-30T00:57:21.579Z,-2.80
2019-01-30T01:00:14.482Z,-2.80
2019-01-30T01:03:01.504Z,-3.00
2019-01-30T01:06:08.760Z,-2.80
2019-01-30T01:08:56.742Z,-2.80
2019-01-30T01:11:37.933Z,-2.80
2019-01-30T01:14:18.308Z,-2.90
2019-01-30T01:16:58.807Z,-3.10
2019-01-30T01:19:39.543Z,-3.00
2019-01-30T01:22:20.099Z,-3.00
2019-01-30T01:25:00.775Z,-2.90
2019-01-30T01:27:41.339Z,-3.00
2019-01-30T01:30:25.137Z,-3.30
2019-01-30T01:33:04.843Z,-3.00
2019-01-30T01:35:45.427Z,-3.00
2019-01-30T01:38:26.179Z,-3.00
2019-01-30T01:41:06.895Z,-3.00
2019-01-30T01:43:47.621Z,-3.10
2019-01-30T01:46:28.209Z,-3.00
2019-01-30T01:49:08.949Z,-3.00
2019-01-30T01:51:49.586Z,-3.30
2019-01-30T01:54:30.266Z,-3.10
2019-01-30T01:57:11.220Z,-3.00
2019-01-30T01:59:51.724Z,-3.00
2019-01-30T02:02:32.580Z,-3.10
2019-01-30T02:05:13.288Z,-3.10
2019-01-30T02:07:54.092Z,-3.10
2019-01-30T02:10:35.678Z,-3.10
2019-01-30T02:13:16.386Z,-3.10
2019-01-30T02:15:57.111Z,-3.10
2019-01-30T02:18:37.759Z,-3.10
2019-01-30T02:21:18.527Z,-3.00
2019-01-30T02:23:59.248Z,-3.50
2019-01-30T02:26:39.739Z,-3.20
2019-01-30T02:29:20.516Z,-3.50
2019-01-30T02:32:01.343Z,-3.20
2019-01-30T02:34:41.956Z,-3.30
2019-01-30T02:37:22.747Z,-3.30
2019-01-30T02:40:03.539Z,-3.00
2019-01-30T02:42:44.411Z,-3.40
2019-01-30T02:45:25.259Z,-3.30
2019-01-30T02:48:05.876Z,-3.00
2019-01-30T02:50:46.551Z,-3.50
2019-01-30T02:53:27.071Z,-3.20
2019-01-30T02:56:07.835Z,-3.30
2019-01-30T02:58:48.610Z,-3.60
2019-01-30T03:01:29.376Z,-3.20
2019-01-30T03:04:10.187Z,-3.30
2019-01-30T03:06:50.772Z,-3.50
2019-01-30T03:09:31.504Z,-3.10
2019-01-30T03:12:11.979Z,-3.10
2019-01-30T03:14:52.731Z,-3.30
2019-01-30T03:17:33.324Z,-3.50
2019-01-30T03:20:13.743Z,-3.30
2019-01-30T03:22:54.547Z,-3.40
2019-01-30T03:25:35.095Z,-3.30
2019-01-30T03:28:15.658Z,-3.50
2019-01-30T03:30:56.432Z,-3.20
2019-01-30T03:33:37.296Z,-3.30
2019-01-30T03:36:18.051Z,-3.50
2019-01-30T03:38:59.019Z,-3.50
2019-01-30T03:41:39.808Z,-3.10
2019-01-30T03:44:20.544Z,-3.10
2019-01-30T03:47:01.199Z,-3.00
2019-01-30T03:49:41.855Z,-3.40
2019-01-30T03:52:22.583Z,-3.30
2019-01-30T03:55:03.119Z,-3.00
2019-01-30T03:57:43.755Z,-3.50
2019-01-30T04:00:24.419Z,-3.20
2019-01-30T04:03:04.847Z,-3.30
2019-01-30T04:05:45.432Z,-3.50
2019-01-30T04:08:26.148Z,-3.00
2019-01-30T04:11:06.994Z,-3.10
2019-01-30T04:13:47.807Z,-3.10
2019-01-30T04:16:28.587Z,-3.00
2019-01-30T04:19:09.024Z,-3.10
2019-01-30T04:21:49.743Z,-3.10
2019-01-30T04:24:30.567Z,-3.10
2019-01-30T04:27:11.299Z,-3.10
2019-01-30T04:29:51.864Z,-3.10
2019-01-30T04:32:32.435Z,-3.00
2019-01-30T04:35:13.109Z,-3.50
2019-01-30T04:37:53.671Z,-3.10
2019-01-30T04:40:34.327Z,-3.10
2019-01-30T04:43:14.874Z,-3.30
2019-01-30T04:45:55.641Z,-3.40
2019-01-30T04:48:38.015Z,-3.30
2019-01-30T04:51:18.788Z,-3.50
2019-01-30T04:53:59.611Z,-3.50
2019-01-30T04:56:40.141Z,-3.20
2019-01-30T04:59:21.034Z,-3.20
2019-01-30T05:02:00.205Z,-3.30
2019-01-30T05:04:48.320Z,-3.40
2019-01-30T05:07:36.307Z,-3.40
2019-01-30T05:10:17.288Z,-3.30
2019-01-30T05:12:57.905Z,-3.50
2019-01-30T05:15:38.500Z,-3.50
2019-01-30T05:18:19.107Z,-3.20
2019-01-30T05:20:59.800Z,-3.20
2019-01-30T05:23:40.515Z,-3.40
2019-01-30T05:26:21.039Z,-3.30
2019-01-30T05:29:01.570Z,-3.40
2019-01-30T05:31:42.229Z,-3.40
2019-01-30T05:34:22.659Z,-3.30
2019-01-30T05:37:03.239Z,-3.30
2019-01-30T05:39:44.146Z,-3.20
2019-01-30T05:42:24.983Z,-3.30
2019-01-30T05:45:05.751Z,-3.60
2019-01-30T05:47:46.255Z,-3.50
2019-01-30T05:50:26.943Z,-3.60
2019-01-30T05:53:07.674Z,-3.50
2019-01-30T05:55:48.375Z,-3.20
2019-01-30T05:58:28.995Z,-3.30
2019-01-30T06:01:09.661Z,-3.20
2019-01-30T06:03:50.303Z,-3.30
2019-01-30T06:06:31.160Z,-3.60
2019-01-30T06:09:11.959Z,-3.40
2019-01-30T06:11:55.649Z,-3.20
2019-01-30T06:14:36.448Z,-3.10
2019-01-30T06:17:16.907Z,-3.00
2019-01-30T06:19:57.357Z,-3.30
2019-01-30T06:22:39.308Z,-3.30
2019-01-30T06:25:20.613Z,-3.00
2019-01-30T06:28:02.705Z,-3.10
2019-01-30T06:30:43.741Z,-2.90
2019-01-30T06:33:24.640Z,-2.90
2019-01-30T06:36:05.255Z,-2.90
2019-01-30T06:38:45.847Z,-2.90
2019-01-30T06:41:26.575Z,-2.90
2019-01-30T06:44:09.120Z,-2.90
2019-01-30T06:46:49.831Z,-2.90
2019-01-30T06:49:30.447Z,-2.90
2019-01-30T06:52:11.304Z,-2.90
2019-01-30T06:54:51.750Z,-2.90
2019-01-30T06:57:32.551Z,-2.90
2019-01-30T07:00:13.340Z,-2.80
2019-01-30T07:02:54.020Z,-2.80
2019-01-30T07:05:34.868Z,-2.80
2019-01-30T07:08:15.631Z,-2.80
2019-01-30T07:10:56.304Z,-2.90
2019-01-30T07:13:36.718Z,-2.90
2019-01-30T07:16:17.439Z,-3.00
2019-01-30T07:18:58.118Z,-2.90
2019-01-30T07:21:38.677Z,-2.90
2019-01-30T07:24:19.127Z,-2.90
2019-01-30T07:26:59.655Z,-3.00
2019-01-30T07:29:40.060Z,-2.80
2019-01-30T07:32:20.752Z,-2.80
2019-01-30T07:35:02.017Z,-3.10
2019-01-30T07:37:42.727Z,-2.90
2019-01-30T07:40:23.759Z,-3.00
2019-01-30T07:43:04.387Z,-2.80
2019-01-30T07:45:45.142Z,-2.80
2019-01-30T07:48:27.324Z,-2.80
2019-01-30T07:51:08.779Z,-2.80
2019-01-30T07:53:49.503Z,-2.80
2019-01-30T07:56:29.959Z,-2.70
2019-01-30T07:59:10.503Z,-2.60
2019-01-30T08:01:52.126Z,-2.60
2019-01-30T08:04:32.729Z,-2.60
2019-01-30T08:07:14.567Z,-2.60
2019-01-30T08:09:54.915Z,-2.40
2019-01-30T08:12:35.612Z,-2.40
2019-01-30T08:15:16.275Z,-2.40
2019-01-30T08:17:57.274Z,-2.40
2019-01-30T08:20:38.107Z,-2.40
2019-01-30T08:23:18.751Z,-2.30
2019-01-30T08:26:00.100Z,-2.40
2019-01-30T08:28:41.519Z,-2.20
2019-01-30T08:31:22.863Z,-2.10
2019-01-30T08:34:03.301Z,-2.20
2019-01-30T08:36:44.016Z,-2.20
2019-01-30T08:39:25.206Z,-2.30
2019-01-30T08:42:05.685Z,-2.00
2019-01-30T08:44:47.126Z,-2.00
2019-01-30T08:47:27.767Z,-2.30
2019-01-30T08:50:08.685Z,-2.00
2019-01-30T08:52:49.239Z,-2.00
2019-01-30T08:55:29.875Z,-1.90
2019-01-30T08:58:10.725Z,-1.70
2019-01-30T09:00:51.296Z,-1.80
2019-01-30T09:03:31.964Z,-1.70
2019-01-30T09:06:12.332Z,-1.80
2019-01-30T09:08:52.755Z,-1.70
2019-01-30T09:11:33.241Z,-1.50
2019-01-30T09:14:13.921Z,-1.60
2019-01-30T09:16:54.247Z,-1.00
2019-01-30T09:19:34.887Z,-1.00
2019-01-30T09:22:16.112Z,-1.00
2019-01-30T09:24:56.783Z,-1.00
2019-01-30T09:27:37.967Z,-1.00
2019-01-30T09:30:19.068Z,-1.00
2019-01-30T09:33:00.086Z,-1.00
2019-01-30T09:35:40.578Z,-1.00
2019-01-30T09:38:21.270Z,-1.10
2019-01-30T09:41:01.981Z,-0.80
2019-01-30T09:43:42.512Z,-1.00
2019-01-30T09:46:23.409Z,-1.10
2019-01-30T09:49:04.007Z,-0.80
2019-01-30T09:51:44.667Z,-1.10
2019-01-30T09:54:25.425Z,-0.80
2019-01-30T09:57:06.128Z,-1.00
2019-01-30T09:59:46.812Z,-1.00
2019-01-30T10:02:27.294Z,-1.10
2019-01-30T10:05:07.943Z,-1.10
2019-01-30T10:07:48.891Z,-1.10
2019-01-30T10:10:29.943Z,-1.40
2019-01-30T10:13:10.530Z,-1.30
2019-01-30T10:15:53.020Z,-1.50
2019-01-30T10:18:33.437Z,-1.60
2019-01-30T10:21:13.844Z,-1.40
2019-01-30T10:23:54.647Z,-1.50
2019-01-30T10:26:35.327Z,-1.50
2019-01-30T10:29:16.074Z,-1.60
2019-01-30T10:31:56.740Z,-1.40
2019-01-30T10:34:37.239Z,-1.50
2019-01-30T10:37:17.815Z,-1.60
2019-01-30T10:39:58.491Z,-1.40
2019-01-30T10:42:39.279Z,-1.50
2019-01-30T10:45:19.868Z,-1.50
2019-01-30T10:48:00.445Z,-1.60
2019-01-30T10:50:41.235Z,-1.30
2019-01-30T10:53:21.919Z,-1.30
2019-01-30T10:56:02.595Z,-1.30
2019-01-30T10:58:43.476Z,-1.70
2019-01-30T11:01:24.289Z,-1.50
2019-01-30T11:04:05.063Z,-1.30
2019-01-30T11:06:45.805Z,-1.30
2019-01-30T11:09:26.363Z,-0.80
2019-01-30T11:12:07.156Z,-1.00
2019-01-30T11:14:47.723Z,-1.00
2019-01-30T11:17:28.423Z,-1.00
2019-01-30T11:20:09.011Z,-1.00
2019-01-30T11:22:49.644Z,-0.80
2019-01-30T11:25:30.291Z,-0.80
2019-01-30T11:28:10.899Z,-0.50
2019-01-30T11:30:51.572Z,-0.40
2019-01-30T11:33:32.300Z,-0.60
2019-01-30T11:36:13.213Z,-0.60
2019-01-30T11:38:53.851Z,-0.50
2019-01-30T11:41:34.711Z,-0.40
2019-01-30T11:44:15.724Z,-0.20
2019-01-30T11:46:56.359Z,-0.50
2019-01-30T11:49:36.887Z,-0.40
2019-01-30T11:52:17.488Z,-0.20
2019-01-30T11:54:58.191Z,-0.80
2019-01-30T11:57:39.103Z,-0.70
2019-01-30T12:00:25.743Z,-0.30
2019-01-30T12:03:06.691Z,-0.50
2019-01-30T12:05:47.591Z,-0.20
2019-01-30T12:08:28.333Z,-0.30
2019-01-30T12:11:09.079Z,-0.10
2019-01-30T12:13:49.618Z,0.00
2019-01-30T12:16:30.127Z,-0.10
2019-01-30T12:19:10.975Z,0.00
2019-01-30T12:21:51.828Z,-0.10
2019-01-30T12:24:32.844Z,0.10
2019-01-30T12:27:13.580Z,-0.20
2019-01-30T12:29:54.228Z,0.30
2019-01-30T12:32:34.764Z,0.30
2019-01-30T12:35:15.315Z,0.30
2019-01-30T12:37:56.235Z,0.10
2019-01-30T12:40:36.832Z,-0.30
2019-01-30T12:43:17.584Z,0.00
2019-01-30T12:45:58.259Z,-0.10
2019-01-30T12:48:39.227Z,-0.50
2019-01-30T12:51:19.831Z,-0.40
2019-01-30T12:54:00.413Z,-0.50
2019-01-30T12:56:41.088Z,-0.40
2019-01-30T12:59:21.744Z,-0.20
2019-01-30T13:02:02.447Z,-0.50
2019-01-30T13:04:42.933Z,-0.30
2019-01-30T13:07:24.679Z,-0.30
2019-01-30T13:10:05.868Z,-0.30
2019-01-30T13:12:46.549Z,-0.30
2019-01-30T13:15:27.235Z,-0.10
2019-01-30T13:18:17.826Z,0.00
2019-01-30T13:20:50.556Z,-0.10
2019-01-30T13:23:31.310Z,-0.30
2019-01-30T13:26:11.919Z,-0.10
2019-01-30T13:28:52.571Z,0.00
2019-01-30T13:31:33.308Z,0.00
2019-01-30T13:34:13.990Z,0.10
2019-01-30T13:36:54.692Z,0.00
2019-01-30T13:39:35.491Z,0.20
2019-01-30T13:42:16.300Z,0.10
2019-01-30T13:44:56.944Z,0.00
2019-01-30T13:47:37.863Z,0.10
2019-01-30T13:50:18.698Z,0.00
2019-01-30T13:52:59.289Z,-0.10
2019-01-30T13:55:40.177Z,0.00
2019-01-30T13:58:20.869Z,-0.10
2019-01-30T14:01:01.486Z,0.00
2019-01-30T14:03:42.146Z,-0.30
2019-01-30T14:06:22.859Z,-0.30
2019-01-30T14:09:04.373Z,-0.20
2019-01-30T14:11:45.606Z,-0.50
2019-01-30T14:14:26.231Z,-0.40
2019-01-30T14:17:07.034Z,0.00
2019-01-30T14:19:47.746Z,-0.40
2019-01-30T14:22:28.509Z,0.00
2019-01-30T14:25:09.144Z,-0.30
2019-01-30T14:27:49.839Z,-0.30
2019-01-30T14:30:30.610Z,-0.30
2019-01-30T14:33:11.319Z,-0.30
2019-01-30T14:35:52.052Z,-0.30
2019-01-30T14:38:32.656Z,-0.30
2019-01-30T14:41:13.334Z,-0.20
2019-01-30T14:43:54.169Z,-0.50
2019-01-30T14:46:34.784Z,-0.40
2019-01-30T14:49:15.150Z,-0.20
2019-01-30T14:51:55.846Z,-0.70
2019-01-30T14:54:36.625Z,-0.30
2019-01-30T14:57:17.099Z,-0.30
2019-01-30T14:59:57.595Z,-0.80
2019-01-30T15:02:38.414Z,-0.80
2019-01-30T15:05:22.543Z,-0.80
2019-01-30T15:08:01.894Z,-0.70
2019-01-30T15:10:42.640Z,-1.10
2019-01-30T15:13:23.199Z,-1.00
2019-01-30T15:16:03.836Z,-1.00
2019-01-30T15:18:44.507Z,-0.90
2019-01-30T15:21:25.306Z,-1.10
2019-01-30T15:24:06.015Z,-0.70
2019-01-30T15:26:46.836Z,-1.00
2019-01-30T15:29:27.514Z,-1.00
2019-01-30T15:32:08.116Z,-1.00
2019-01-30T15:34:48.959Z,-1.10
2019-01-30T15:37:29.551Z,-1.10
2019-01-30T15:40:10.381Z,-1.30
2019-01-30T15:42:51.138Z,-1.30
2019-01-30T15:45:31.827Z,-1.30
2019-01-30T15:48:12.479Z,-1.00
2019-01-30T15:50:53.112Z,-1.30
2019-01-30T15:53:33.720Z,-1.30
2019-01-30T15:56:14.771Z,-1.10
2019-01-30T15:58:55.524Z,-1.30
2019-01-30T16:01:36.247Z,-1.00
2019-01-30T16:04:17.617Z,-1.20
2019-01-30T16:06:58.719Z,-1.30
2019-01-30T16:09:39.372Z,-1.30
2019-01-30T16:12:20.204Z,-1.40
2019-01-30T16:15:02.735Z,-1.20
2019-01-30T16:17:43.647Z,-1.40
2019-01-30T16:20:23.983Z,-1.50
2019-01-30T16:23:04.648Z,-1.50
2019-01-30T16:25:45.435Z,-1.50
2019-01-30T16:28:26.109Z,-1.60
2019-01-30T16:31:06.764Z,-1.40
2019-01-30T16:33:47.595Z,-1.50
2019-01-30T16:36:28.327Z,-1.60
2019-01-30T16:39:08.979Z,-1.50
2019-01-30T16:41:49.703Z,-1.50
2019-01-30T16:44:30.444Z,-1.50
2019-01-30T16:47:10.820Z,-1.60
2019-01-30T16:49:51.491Z,-1.30
2019-01-30T16:52:32.338Z,-1.50
2019-01-30T16:55:13.147Z,-1.50
2019-01-30T16:57:53.562Z,-1.60
2019-01-30T17:00:34.252Z,-1.50
2019-01-30T17:03:15.204Z,-1.30
2019-01-30T17:06:06.676Z,-1.50
2019-01-30T17:08:38.980Z,-1.30
2019-01-30T17:11:19.842Z,-1.50
2019-01-30T17:14:00.570Z,-1.50
2019-01-30T17:16:41.451Z,-1.30
2019-01-30T17:19:22.281Z,-1.40
2019-01-30T17:22:02.999Z,-1.30
2019-01-30T17:24:43.725Z,-1.30
2019-01-30T17:27:24.387Z,-1.40
2019-01-30T17:30:05.001Z,-1.30
2019-01-30T17:32:45.475Z,-1.50
2019-01-30T17:35:26.132Z,-1.40
2019-01-30T17:38:06.780Z,-1.50
2019-01-30T17:40:48.060Z,-1.40
2019-01-30T17:43:28.752Z,-1.30
2019-01-30T17:46:09.256Z,-1.30
2019-01-30T17:48:49.777Z,-1.30
2019-01-30T17:51:30.447Z,-1.30
2019-01-30T17:54:11.153Z,-1.40
2019-01-30T17:56:51.802Z,-1.30
2019-01-30T17:59:32.537Z,-1.30
2019-01-30T18:02:13.233Z,-1.30
2019-01-30T18:04:53.896Z,-1.30
2019-01-30T18:07:34.418Z,-1.00
2019-01-30T18:10:17.771Z,-1.30
2019-01-30T18:12:57.919Z,-1.30
2019-01-30T18:15:38.807Z,-1.20
2019-01-30T18:18:19.748Z,-1.30
2019-01-30T18:21:00.539Z,-1.30
2019-01-30T18:23:41.307Z,-1.40
2019-01-30T18:26:21.949Z,-1.20
2019-01-30T18:29:02.697Z,-1.10
2019-01-30T18:31:43.239Z,-1.10
2019-01-30T18:34:23.864Z,-1.10
2019-01-30T18:37:04.403Z,-1.10
2019-01-30T18:39:45.007Z,-1.10
2019-01-30T18:42:25.807Z,-1.10
2019-01-30T18:45:06.691Z,-1.10
2019-01-30T18:47:47.938Z,-1.10
2019-01-30T18:50:28.595Z,-1.10
2019-01-30T18:53:09.319Z,-0.80
2019-01-30T18:55:50.652Z,-1.00
2019-01-30T18:58:31.293Z,-1.10
2019-01-30T19:01:11.895Z,-1.10
2019-01-30T19:03:52.743Z,-0.80
2019-01-30T19:06:33.571Z,-1.00
2019-01-30T19:09:14.333Z,-1.00
2019-01-30T19:11:55.061Z,-1.00
2019-01-30T19:14:35.600Z,-1.00
2019-01-30T19:17:17.016Z,-1.00
2019-01-30T19:19:57.760Z,-1.00
2019-01-30T19:22:38.400Z,-1.00
2019-01-30T19:25:19.331Z,-1.00
2019-01-30T19:28:00.251Z,-1.00
2019-01-30T19:30:40.888Z,-1.00
2019-01-30T19:33:21.417Z,-1.10
2019-01-30T19:36:02.260Z,-0.80
2019-01-30T19:38:31.133Z,-1.00
2019-01-30T19:41:19.176Z,-0.90
2019-01-30T19:44:07.207Z,-1.00
2019-01-30T19:46:55.926Z,-1.10
2019-01-30T19:49:44.992Z,-1.10
2019-01-30T19:52:33.093Z,-1.10
2019-01-30T19:55:21.178Z,-0.70
2019-01-30T19:58:12.072Z,-1.00
2019-01-30T20:00:59.002Z,-1.00
2019-01-30T20:03:59.179Z,-1.00
2019-01-30T20:06:36.970Z,-1.00
2019-01-30T20:09:25.261Z,-1.00
2019-01-30T20:12:13.376Z,-1.10
2019-01-30T20:15:01.410Z,-0.80
2019-01-30T20:17:49.654Z,-1.10
2019-01-30T20:20:37.739Z,-1.00
2019-01-30T20:23:25.847Z,-1.00
2019-01-30T20:26:13.879Z,-1.10
2019-01-30T20:29:02.076Z,-0.60
2019-01-30T20:31:50.087Z,-1.00
2019-01-30T20:34:38.130Z,-1.00
2019-01-30T20:37:26.584Z,-1.10
2019-01-30T20:40:35.119Z,-0.70
2019-01-30T20:43:23.146Z,-0.60
2019-01-30T20:46:11.227Z,-1.00
2019-01-30T20:48:59.294Z,-1.00
2019-01-30T20:51:47.323Z,-1.00
2019-01-30T20:54:35.412Z,-1.00
2019-01-30T20:57:23.557Z,-1.00
2019-01-30T21:00:34.927Z,-1.00
2019-01-30T21:03:21.870Z,-0.90
2019-01-30T21:06:09.877Z,-1.00
2019-01-30T21:08:57.936Z,-0.90
2019-01-30T21:11:38.644Z,-0.50
2019-01-30T21:14:19.399Z,-0.90
2019-01-30T21:16:59.899Z,-0.90
2019-01-30T21:19:40.487Z,-0.50
2019-01-30T21:22:21.116Z,-0.60
2019-01-30T21:25:01.591Z,-0.70
2019-01-30T21:27:42.071Z,-0.50
2019-01-30T21:30:22.542Z,-0.60
2019-01-30T21:33:03.501Z,-0.50
2019-01-30T21:35:44.299Z,-0.30
2019-01-30T21:38:25.149Z,-0.60
2019-01-30T21:41:05.891Z,-0.80
2019-01-30T21:43:46.660Z,-0.60
2019-01-30T21:46:27.314Z,-0.50
2019-01-30T21:49:08.081Z,-0.40
2019-01-30T21:51:49.093Z,-0.80
2019-01-30T21:54:30.266Z,-0.50
2019-01-30T21:57:10.868Z,-0.80
2019-01-30T21:59:51.560Z,-0.30
2019-01-30T22:02:32.364Z,-0.60
2019-01-30T22:05:13.021Z,-0.70
2019-01-30T22:08:00.895Z,-0.40
2019-01-30T22:10:36.568Z,-0.50
2019-01-30T22:13:17.368Z,-0.40
2019-01-30T22:15:58.142Z,-0.50
2019-01-30T22:18:39.071Z,-0.50
2019-01-30T22:21:19.612Z,-0.70
2019-01-30T22:24:05.634Z,-0.90
2019-01-30T22:26:42.985Z,-0.70
2019-01-30T22:29:23.375Z,-0.90
2019-01-30T22:32:03.926Z,-0.80
2019-01-30T22:34:44.416Z,-0.60
2019-01-30T22:37:26.451Z,-0.70
2019-01-30T22:40:07.240Z,-0.80
2019-01-30T22:42:49.228Z,-0.60
2019-01-30T22:45:30.265Z,-1.10
2019-01-30T22:48:11.702Z,-1.00
2019-01-30T22:50:53.060Z,-0.90
2019-01-30T22:53:34.020Z,-1.00
2019-01-30T22:56:15.163Z,-1.10
2019-01-30T22:58:56.155Z,-1.10
2019-01-30T23:01:36.702Z,-1.10
2019-01-30T23:04:17.453Z,-0.80
2019-01-30T23:06:58.616Z,-1.10
2019-01-30T23:09:39.692Z,-1.00
2019-01-30T23:12:20.427Z,-0.80
2019-01-30T23:15:01.315Z,-0.90
2019-01-30T23:17:41.809Z,-1.30
2019-01-30T23:20:22.837Z,-1.10
2019-01-30T23:23:03.908Z,-1.20
2019-01-30T23:25:44.619Z,-1.00
2019-01-30T23:28:25.152Z,-1.30
2019-01-30T23:31:05.928Z,-1.30
2019-01-30T23:33:46.712Z,-1.50
2019-01-30T23:36:27.567Z,-1.50
2019-01-30T23:39:08.399Z,-1.30
2019-01-30T23:41:51.743Z,-1.30
2019-01-30T23:44:32.804Z,-1.50
2019-01-30T23:47:13.630Z,-1.50
2019-01-30T23:49:54.751Z,-1.40
2019-01-30T23:52:35.997Z,-1.60
2019-01-30T23:55:17.236Z,-1.50
2019-01-30T23:57:58.331Z,-1.60
